Time;durP1;ratioP1;P1;durP2;ratioP2;P2;SDS_P1;SDS_P2;PMS_P1;PMS_P2;Temp;Humidity;BMP_temperature;BMP_pressure;BME280_temperature;BME280_humidity;BME280_pressure;Samples;Min_cycle;Max_cycle;Signal;HPM_P1;HPM_P2
2023/04/19 00:00:11;;;;;;;;;;;;;;;;;;1029446;28;3901;-46
2023/04/19 00:01:01;;;;;;;;;;;;;;;;;;1026767;28;3873;-49
2023/04/19 00:01:32;;;;;;;;;;;;;;;;;;1028639;28;2256;-48
2023/04/19 00:02:02;;;;;;;;;;;;;;;;;;1026445;28;4056;-46
2023/04/19 00:02:34;;;;;;;;;;;;;;;;;;1032890;28;2082;-47
2023/04/19 00:03:07;;;;;;;;;;;;;;;;;;1027456;28;3956;-50
2023/04/19 00:03:38;;;;;;;;;;;;;;;;;;1030016;28;3037;-49
2023/04/19 00:04:08;;;;;;;;;;;;;;;;;;1029724;28;4069;-48
2023/04/19 00:04:38;;;;;;;;;;;;;;;;;;1026560;28;1845;-49
2023/04/19 00:05:10;;;;;;;;;;;;;;;;;;1025125;28;4075;-49
2023/04/19 00:05:41;;;;;;;;;;;;;;;;;;1027240;28;2502;-48
2023/04/19 00:06:13;;;;;;;;;;;;;;;;;;1030548;28;3869;-46
2023/04/19 00:06:45;;;;;;;;;;;;;;;;;;1034958;28;1698;-48
2023/04/19 00:07:17;;;;;;;;;;;;;;;;;;1030869;28;3904;-47
2023/04/19 00:07:47;;;;;;;;;;;;;;;;;;1030210;28;1754;-46
2023/04/19 00:08:17;;;;;;;;;;;;;;;;;;1029306;28;4062;-48
2023/04/19 00:08:48;;;;;;;;;;;;;;;;;;1030767;28;1846;-46
2023/04/19 00:09:18;;;;;;;;;;;;;;;;;;1029269;28;3739;-46
2023/04/19 00:09:48;;;;;;;;;;;;;;;;;;1030567;28;2020;-45
2023/04/19 00:10:19;;;;;;;;;;;;;;;;;;1030515;28;4196;-46
2023/04/19 00:10:49;;;;;;;;;;;;;;;;;;1028673;28;2889;-48
2023/04/19 00:11:19;;;;;;;;;;;;;;;;;;1028870;28;3830;-47
2023/04/19 00:11:50;;;;;;;;;;;;;;;;;;1030219;28;3190;-48
2023/04/19 00:12:21;;;;;;;;;;;;;;;;;;1030496;28;4133;-47
2023/04/19 00:12:51;;;;;;;;;;;;;;;;;;1030408;28;1783;-46
2023/04/19 00:13:21;;;;;;;;;;;;;;;;;;1029455;28;3987;-46
2023/04/19 00:13:52;;;;;;;;;;;;;;;;;;1030090;28;3069;-47
2023/04/19 00:14:22;;;;;;;;;;;;;;;;;;1030998;28;4007;-47
2023/04/19 00:14:52;;;;;;;;;;;;;;;;;;1030111;28;1904;-46
2023/04/19 00:15:22;;;;;;;;;;;;;;;;;;1030133;28;3951;-45
2023/04/19 00:15:53;;;;;;;;;;;;;;;;;;1030893;28;2329;-48
2023/04/19 00:16:23;;;;;;;;;;;;;;;;;;1031177;28;3982;-45
2023/04/19 00:16:53;;;;;;;;;;;;;;;;;;1030767;28;1708;-50
2023/04/19 00:17:24;;;;;;;;;;;;;;;;;;1029899;28;3898;-49
2023/04/19 00:17:54;;;;;;;;;;;;;;;;;;1030626;28;1372;-49
2023/04/19 00:18:24;;;;;;;;;;;;;;;;;;1029483;28;3991;-49
2023/04/19 00:18:54;;;;;;;;;;;;;;;;;;1030637;28;1831;-46
2023/04/19 00:19:25;;;;;;;;;;;;;;;;;;1029347;28;3985;-46
2023/04/19 00:19:56;;;;;;;;;;;;;;;;;;1030167;28;2984;-48
2023/04/19 00:20:26;;;;;;;;;;;;;;;;;;1029379;28;4080;-48
2023/04/19 00:20:57;;;;;;;;;;;;;;;;;;1030534;28;2946;-48
2023/04/19 00:21:27;;;;;;;;;;;;;;;;;;1030038;28;3813;-46
2023/04/19 00:21:57;;;;;;;;;;;;;;;;;;1029374;28;4113;-47
2023/04/19 00:22:28;;;;;;;;;;;;;;;;;;1029070;28;2937;-45
2023/04/19 00:22:58;;;;;;;;;;;;;;;;;;1028942;28;3943;-52
2023/04/19 00:23:28;;;;;;;;;;;;;;;;;;1028286;28;2973;-47
2023/04/19 00:24:01;;;;;;;;;;;;;;;;;;1029626;28;4025;-48
2023/04/19 00:24:31;;;;;;;;;;;;;;;;;;1029414;28;2019;-48
2023/04/19 00:25:01;;;;;;;;;;;;;;;;;;1029540;28;4130;-46
2023/04/19 00:25:33;;;;;;;;;;;;;;;;;;1030564;28;2806;-50
2023/04/19 00:26:03;;;;;;;;;;;;;;;;;;1029044;28;3988;-48
2023/04/19 00:26:34;;;;;;;;;;;;;;;;;;1030491;28;1639;-45
2023/04/19 00:27:04;;;;;;;;;;;;;;;;;;1028553;28;4095;-46
2023/04/19 00:27:34;;;;;;;;;;;;;;;;;;1030299;28;3207;-45
2023/04/19 00:28:05;;;;;;;;;;;;;;;;;;1028144;28;3893;-47
2023/04/19 00:28:35;;;;;;;;;;;;;;;;;;1023620;28;2922;-49
2023/04/19 00:29:05;;;;;;;;;;;;;;;;;;1023198;28;3837;-48
2023/04/19 00:29:35;;;;;;;;;;;;;;;;;;1023712;28;2973;-46
2023/04/19 00:30:06;;;;;;;;;;;;;;;;;;1019536;28;4072;-48
2023/04/19 00:30:36;;;;;;;;;;;;;;;;;;1025928;28;3008;-46
2023/04/19 00:31:07;;;;;;;;;;;;;;;;;;1026547;28;3941;-49
2023/04/19 00:31:38;;;;;;;;;;;;;;;;;;1030842;28;2864;-47
2023/04/19 00:32:08;;;;;;;;;;;;;;;;;;1027219;28;4084;-50
2023/04/19 00:32:39;;;;;;;;;;;;;;;;;;1028463;28;3362;-49
2023/04/19 00:33:11;;;;;;;;;;;;;;;;;;1029894;28;4064;-47
2023/04/19 00:33:41;;;;;;;;;;;;;;;;;;1030085;28;2910;-47
2023/04/19 00:34:12;;;;;;;;;;;;;;;;;;1024856;28;3914;-47
2023/04/19 00:34:42;;;;;;;;;;;;;;;;;;1026409;28;1609;-46
2023/04/19 00:35:13;;;;;;;;;;;;;;;;;;1022838;28;4014;-47
2023/04/19 00:35:43;;;;;;;;;;;;;;;;;;1026709;28;1734;-47
2023/04/19 00:36:13;;;;;;;;;;;;;;;;;;1029442;28;4032;-48
2023/04/19 00:36:44;;;;;;;;;;;;;;;;;;1030157;28;2701;-45
2023/04/19 00:37:14;;;;;;;;;;;;;;;;;;1030329;28;4047;-48
2023/04/19 00:37:44;;;;;;;;;;;;;;;;;;1030130;28;2904;-48
2023/04/19 00:38:15;;;;;;;;;;;;;;;;;;1030391;28;3910;-46
2023/04/19 00:38:45;;;;;;;;;;;;;;;;;;1028081;28;3050;-50
2023/04/19 00:39:15;;;;;;;;;;;;;;;;;;1026150;28;3802;-45
2023/04/19 00:39:46;;;;;;;;;;;;;;;;;;1030086;28;2124;-45
2023/04/19 00:40:16;;;;;;;;;;;;;;;;;;1028778;28;3958;-50
2023/04/19 00:40:46;;;;;;;;;;;;;;;;;;1028496;28;3727;-46
2023/04/19 00:41:17;;;;;;;;;;;;;;;;;;1029813;28;3778;-46
2023/04/19 00:41:47;;;;;;;;;;;;;;;;;;1029594;28;3012;-50
2023/04/19 00:42:17;;;;;;;;;;;;;;;;;;1028887;28;4094;-45
2023/04/19 00:42:47;;;;;;;;;;;;;;;;;;1027826;28;3245;-47
2023/04/19 00:43:18;;;;;;;;;;;;;;;;;;1029711;28;4067;-49
2023/04/19 00:43:48;;;;;;;;;;;;;;;;;;1028669;28;2796;-47
2023/04/19 00:44:19;;;;;;;;;;;;;;;;;;1029705;28;3866;-46
2023/04/19 00:44:49;;;;;;;;;;;;;;;;;;1030050;28;2880;-51
2023/04/19 00:45:19;;;;;;;;;;;;;;;;;;1030169;28;4415;-47
2023/04/19 00:45:49;;;;;;;;;;;;;;;;;;1029597;28;2926;-45
2023/04/19 00:46:20;;;;;;;;;;;;;;;;;;1029064;28;3936;-47
2023/04/19 00:46:51;;;;;;;;;;;;;;;;;;1034812;28;1983;-46
2023/04/19 00:47:21;;;;;;;;;;;;;;;;;;1034389;28;3968;-46
2023/04/19 00:47:52;;;;;;;;;;;;;;;;;;1034521;28;2890;-45
2023/04/19 00:48:22;;;;;;;;;;;;;;;;;;1037376;28;4055;-50
2023/04/19 00:48:53;;;;;;;;;;;;;;;;;;1036975;28;2875;-47
2023/04/19 00:49:23;;;;;;;;;;;;;;;;;;1036484;28;3753;-46
2023/04/19 00:49:54;;;;;;;;;;;;;;;;;;1037888;28;2959;-47
2023/04/19 00:50:25;;;;;;;;;;;;;;;;;;1037902;28;3986;-44
2023/04/19 00:50:55;;;;;;;;;;;;;;;;;;1039095;28;1648;-51
2023/04/19 00:51:26;;;;;;;;;;;;;;;;;;1037325;28;4056;-49
2023/04/19 00:51:56;;;;;;;;;;;;;;;;;;1039068;28;1857;-47
2023/04/19 00:52:26;;;;;;;;;;;;;;;;;;1036635;28;4006;-48
2023/04/19 00:52:57;;;;;;;;;;;;;;;;;;1039119;28;1659;-48
2023/04/19 00:53:27;;;;;;;;;;;;;;;;;;1037839;28;3748;-46
2023/04/19 00:53:57;;;;;;;;;;;;;;;;;;1038014;28;3805;-49
2023/04/19 00:54:28;;;;;;;;;;;;;;;;;;1036778;28;2906;-46
2023/04/19 00:54:59;;;;;;;;;;;;;;;;;;1038394;28;3906;-45
2023/04/19 00:55:29;;;;;;;;;;;;;;;;;;1038357;28;2247;-45
2023/04/19 00:56:00;;;;;;;;;;;;;;;;;;1038541;28;3871;-48
2023/04/19 00:56:32;;;;;;;;;;;;;;;;;;1037508;28;2929;-49
2023/04/19 00:57:02;;;;;;;;;;;;;;;;;;1038605;28;3881;-48
2023/04/19 00:57:33;;;;;;;;;;;;;;;;;;1038155;28;2095;-48
2023/04/19 00:58:04;;;;;;;;;;;;;;;;;;1038272;28;4194;-45
2023/04/19 00:58:36;;;;;;;;;;;;;;;;;;1039000;28;2205;-46
2023/04/19 00:59:06;;;;;;;;;;;;;;;;;;1036012;28;4005;-47
2023/04/19 00:59:36;;;;;;;;;;;;;;;;;;1037722;28;2971;-47
2023/04/19 01:00:08;;;;;;;;;;;;;;;;;;1035388;28;4066;-48
2023/04/19 01:00:39;;;;;;;;;;;;;;;;;;1038800;28;1865;-46
2023/04/19 01:01:09;;;;;;;;;;;;;;;;;;1036878;28;4051;-49
2023/04/19 01:01:40;;;;;;;;;;;;;;;;;;1038523;28;2761;-48
2023/04/19 01:02:10;;;;;;;;;;;;;;;;;;1035257;28;4210;-45
2023/04/19 01:02:41;;;;;;;;;;;;;;;;;;1038185;28;2033;-45
2023/04/19 01:03:12;;;;;;;;;;;;;;;;;;1037699;28;3867;-47
2023/04/19 01:03:43;;;;;;;;;;;;;;;;;;1038646;28;2051;-50
2023/04/19 01:04:14;;;;;;;;;;;;;;;;;;1037644;28;3804;-47
2023/04/19 01:04:44;;;;;;;;;;;;;;;;;;1038676;28;1848;-47
2023/04/19 01:05:15;;;;;;;;;;;;;;;;;;1037559;28;4110;-48
2023/04/19 01:05:45;;;;;;;;;;;;;;;;;;1039099;28;1706;-47
2023/04/19 01:06:15;;;;;;;;;;;;;;;;;;1037452;28;4086;-45
2023/04/19 01:06:46;;;;;;;;;;;;;;;;;;1038907;28;1929;-50
2023/04/19 01:07:16;;;;;;;;;;;;;;;;;;1038361;28;4416;-47
2023/04/19 01:07:47;;;;;;;;;;;;;;;;;;1038728;28;2111;-48
2023/04/19 01:08:17;;;;;;;;;;;;;;;;;;1037838;28;4074;-46
2023/04/19 01:08:47;;;;;;;;;;;;;;;;;;1038987;28;1706;-51
2023/04/19 01:09:17;;;;;;;;;;;;;;;;;;1037574;28;4045;-45
2023/04/19 01:09:48;;;;;;;;;;;;;;;;;;1037626;28;2851;-47
2023/04/19 01:10:18;;;;;;;;;;;;;;;;;;1037943;28;3904;-47
2023/04/19 01:10:48;;;;;;;;;;;;;;;;;;1038102;28;2763;-50
2023/04/19 01:11:19;;;;;;;;;;;;;;;;;;1038152;28;4023;-48
2023/04/19 01:11:49;;;;;;;;;;;;;;;;;;1034970;28;2943;-47
2023/04/19 01:12:20;;;;;;;;;;;;;;;;;;1036827;28;4024;-49
2023/04/19 01:12:50;;;;;;;;;;;;;;;;;;1037087;28;2951;-45
2023/04/19 01:13:20;;;;;;;;;;;;;;;;;;1037343;28;4012;-45
2023/04/19 01:13:51;;;;;;;;;;;;;;;;;;1038050;28;2039;-50
2023/04/19 01:14:21;;;;;;;;;;;;;;;;;;1038260;28;4934;-45
2023/04/19 01:14:51;;;;;;;;;;;;;;;;;;1033238;28;1819;-44
2023/04/19 01:15:22;;;;;;;;;;;;;;;;;;1033574;28;4183;-47
2023/04/19 01:15:53;;;;;;;;;;;;;;;;;;1032635;28;3521;-48
2023/04/19 01:16:25;;;;;;;;;;;;;;;;;;1034045;28;3840;-46
2023/04/19 01:16:56;;;;;;;;;;;;;;;;;;1037828;28;1720;-51
2023/04/19 01:17:27;;;;;;;;;;;;;;;;;;1037441;28;3942;-46
2023/04/19 01:17:57;;;;;;;;;;;;;;;;;;1038547;28;2239;-47
2023/04/19 01:18:31;;;;;;;;;;;;;;;;;;1038021;28;3933;-46
2023/04/19 01:19:01;;;;;;;;;;;;;;;;;;1037248;28;4178;-49
2023/04/19 01:19:33;;;;;;;;;;;;;;;;;;1037633;28;2878;-47
2023/04/19 01:20:07;;;;;;;;;;;;;;;;;;1036896;28;4440;-46
2023/04/19 01:20:37;;;;;;;;;;;;;;;;;;1038431;28;3002;-49
2023/04/19 01:21:08;;;;;;;;;;;;;;;;;;1037719;28;3888;-47
2023/04/19 01:21:39;;;;;;;;;;;;;;;;;;1037612;28;3161;-48
2023/04/19 01:22:09;;;;;;;;;;;;;;;;;;1033765;28;4071;-49
2023/04/19 01:22:39;;;;;;;;;;;;;;;;;;1036457;28;3124;-48
2023/04/19 01:23:12;;;;;;;;;;;;;;;;;;1037731;28;4062;-48
2023/04/19 01:23:43;;;;;;;;;;;;;;;;;;1037399;28;2745;-47
2023/04/19 01:24:13;;;;;;;;;;;;;;;;;;1039531;28;4036;-49
2023/04/19 01:24:44;;;;;;;;;;;;;;;;;;1037505;28;2931;-47
2023/04/19 01:25:14;;;;;;;;;;;;;;;;;;1033082;28;4066;-51
2023/04/19 01:25:45;;;;;;;;;;;;;;;;;;1033439;28;5014;-46
2023/04/19 01:26:16;;;;;;;;;;;;;;;;;;1033886;28;4068;-47
2023/04/19 01:26:46;;;;;;;;;;;;;;;;;;1033654;28;1889;-47
2023/04/19 01:27:18;;;;;;;;;;;;;;;;;;1037701;28;3959;-47
2023/04/19 01:27:49;;;;;;;;;;;;;;;;;;1037638;28;2535;-47
2023/04/19 01:28:19;;;;;;;;;;;;;;;;;;1036753;28;3938;-50
2023/04/19 01:28:49;;;;;;;;;;;;;;;;;;1035682;28;3033;-48
2023/04/19 01:29:20;;;;;;;;;;;;;;;;;;1037226;28;4068;-48
2023/04/19 01:29:51;;;;;;;;;;;;;;;;;;1037162;28;1870;-47
2023/04/19 01:30:21;;;;;;;;;;;;;;;;;;1036949;28;3940;-45
2023/04/19 01:30:52;;;;;;;;;;;;;;;;;;1036915;28;2758;-49
2023/04/19 01:31:23;;;;;;;;;;;;;;;;;;1035842;28;3834;-46
2023/04/19 01:31:53;;;;;;;;;;;;;;;;;;1037131;28;3223;-47
2023/04/19 01:32:25;;;;;;;;;;;;;;;;;;1036294;28;4049;-45
2023/04/19 01:32:55;;;;;;;;;;;;;;;;;;1035564;28;3024;-50
2023/04/19 01:33:25;;;;;;;;;;;;;;;;;;1036157;28;3807;-48
2023/04/19 01:33:55;;;;;;;;;;;;;;;;;;1036445;28;3080;-45
2023/04/19 01:34:26;;;;;;;;;;;;;;;;;;1036722;28;3837;-49
2023/04/19 01:34:56;;;;;;;;;;;;;;;;;;1038685;28;2051;-48
2023/04/19 01:35:27;;;;;;;;;;;;;;;;;;1026379;28;3897;-47
2023/04/19 01:35:57;;;;;;;;;;;;;;;;;;1029880;28;2959;-46
2023/04/19 01:36:27;;;;;;;;;;;;;;;;;;1028853;28;3857;-47
2023/04/19 01:36:58;;;;;;;;;;;;;;;;;;1028734;28;4132;-48
2023/04/19 01:37:28;;;;;;;;;;;;;;;;;;1036584;28;3038;-46
2023/04/19 01:37:58;;;;;;;;;;;;;;;;;;1036997;28;4061;-46
2023/04/19 01:38:29;;;;;;;;;;;;;;;;;;1035553;28;3145;-49
2023/04/19 01:38:59;;;;;;;;;;;;;;;;;;1038329;28;4297;-48
2023/04/19 01:39:30;;;;;;;;;;;;;;;;;;1035570;28;3096;-49
2023/04/19 01:40:00;;;;;;;;;;;;;;;;;;1036625;28;4098;-48
2023/04/19 01:40:30;;;;;;;;;;;;;;;;;;1035379;28;2750;-45
2023/04/19 01:41:01;;;;;;;;;;;;;;;;;;1036736;28;3884;-48
2023/04/19 01:41:31;;;;;;;;;;;;;;;;;;1036192;28;3057;-47
2023/04/19 01:42:01;;;;;;;;;;;;;;;;;;1037817;28;4579;-46
2023/04/19 01:42:32;;;;;;;;;;;;;;;;;;1035424;28;3058;-47
2023/04/19 01:43:02;;;;;;;;;;;;;;;;;;1034668;28;4011;-47
2023/04/19 01:43:32;;;;;;;;;;;;;;;;;;1037539;28;2912;-47
2023/04/19 01:44:03;;;;;;;;;;;;;;;;;;1037961;28;3830;-45
2023/04/19 01:44:33;;;;;;;;;;;;;;;;;;1039065;28;1697;-49
2023/04/19 01:45:04;;;;;;;;;;;;;;;;;;1036104;28;3902;-47
2023/04/19 01:45:35;;;;;;;;;;;;;;;;;;1037172;28;2880;-47
2023/04/19 01:46:05;;;;;;;;;;;;;;;;;;1037492;28;3797;-47
2023/04/19 01:46:37;;;;;;;;;;;;;;;;;;1038734;28;1638;-46
2023/04/19 01:47:07;;;;;;;;;;;;;;;;;;1037418;28;3922;-48
2023/04/19 01:47:38;;;;;;;;;;;;;;;;;;1034143;28;2033;-45
2023/04/19 01:48:08;;;;;;;;;;;;;;;;;;1033288;28;4074;-47
2023/04/19 01:48:38;;;;;;;;;;;;;;;;;;1033963;28;2022;-49
2023/04/19 01:49:09;;;;;;;;;;;;;;;;;;1032334;28;4098;-46
2023/04/19 01:49:39;;;;;;;;;;;;;;;;;;1038564;28;2873;-50
2023/04/19 01:50:10;;;;;;;;;;;;;;;;;;1037332;28;4107;-50
2023/04/19 01:50:40;;;;;;;;;;;;;;;;;;1033428;28;2861;-50
2023/04/19 01:51:10;;;;;;;;;;;;;;;;;;1032447;28;3803;-46
2023/04/19 01:51:40;;;;;;;;;;;;;;;;;;1033933;28;1766;-47
2023/04/19 01:52:11;;;;;;;;;;;;;;;;;;1032592;28;3894;-47
2023/04/19 01:52:41;;;;;;;;;;;;;;;;;;1036834;28;2869;-46
2023/04/19 01:53:11;;;;;;;;;;;;;;;;;;1035346;28;4182;-45
2023/04/19 01:53:41;;;;;;;;;;;;;;;;;;1036695;28;2960;-46
2023/04/19 01:54:12;;;;;;;;;;;;;;;;;;1036323;28;3851;-48
2023/04/19 01:54:42;;;;;;;;;;;;;;;;;;1038715;28;1975;-46
2023/04/19 01:55:12;;;;;;;;;;;;;;;;;;1037935;28;3856;-48
2023/04/19 01:55:43;;;;;;;;;;;;;;;;;;1037209;28;3290;-46
2023/04/19 01:56:13;;;;;;;;;;;;;;;;;;1038279;28;4057;-46
2023/04/19 01:56:43;;;;;;;;;;;;;;;;;;1036550;28;2871;-47
2023/04/19 01:57:15;;;;;;;;;;;;;;;;;;1037181;28;4398;-48
2023/04/19 01:57:45;;;;;;;;;;;;;;;;;;1038152;28;1734;-46
2023/04/19 01:58:15;;;;;;;;;;;;;;;;;;1038570;28;4075;-45
2023/04/19 01:58:46;;;;;;;;;;;;;;;;;;1036642;28;2923;-46
2023/04/19 01:59:16;;;;;;;;;;;;;;;;;;1032942;28;4061;-46
2023/04/19 01:59:46;;;;;;;;;;;;;;;;;;1032608;28;2978;-45
2023/04/19 02:00:17;;;;;;;;;;;;;;;;;;1033159;28;3992;-47
2023/04/19 02:00:47;;;;;;;;;;;;;;;;;;1031727;28;2963;-46
2023/04/19 02:01:17;;;;;;;;;;;;;;;;;;1035919;28;4068;-46
2023/04/19 02:01:48;;;;;;;;;;;;;;;;;;1036508;28;3071;-47
2023/04/19 02:02:18;;;;;;;;;;;;;;;;;;1036318;28;3941;-45
2023/04/19 02:02:49;;;;;;;;;;;;;;;;;;1035179;28;3239;-49
2023/04/19 02:03:19;;;;;;;;;;;;;;;;;;1037390;28;4124;-47
2023/04/19 02:03:49;;;;;;;;;;;;;;;;;;1038434;28;1557;-46
2023/04/19 02:04:20;;;;;;;;;;;;;;;;;;1037177;28;4005;-48
2023/04/19 02:04:51;;;;;;;;;;;;;;;;;;1038347;28;1852;-48
2023/04/19 02:05:21;;;;;;;;;;;;;;;;;;1037699;28;3810;-45
2023/04/19 02:05:51;;;;;;;;;;;;;;;;;;1038042;28;2908;-48
2023/04/19 02:06:21;;;;;;;;;;;;;;;;;;1036408;28;3863;-46
2023/04/19 02:06:52;;;;;;;;;;;;;;;;;;1038852;28;1759;-48
2023/04/19 02:07:22;;;;;;;;;;;;;;;;;;1037354;28;3876;-46
2023/04/19 02:07:52;;;;;;;;;;;;;;;;;;1037853;28;2684;-46
2023/04/19 02:08:22;;;;;;;;;;;;;;;;;;1037672;28;3810;-46
2023/04/19 02:08:53;;;;;;;;;;;;;;;;;;1039241;28;1668;-47
2023/04/19 02:09:23;;;;;;;;;;;;;;;;;;1038298;28;4015;-48
2023/04/19 02:09:53;;;;;;;;;;;;;;;;;;1039657;28;1903;-47
2023/04/19 02:10:24;;;;;;;;;;;;;;;;;;1037546;28;3955;-48
2023/04/19 02:10:54;;;;;;;;;;;;;;;;;;1038591;28;3063;-46
2023/04/19 02:11:24;;;;;;;;;;;;;;;;;;1038781;28;3963;-46
2023/04/19 02:11:55;;;;;;;;;;;;;;;;;;1037019;28;2921;-46
2023/04/19 02:12:27;;;;;;;;;;;;;;;;;;1038461;28;3784;-47
2023/04/19 02:12:57;;;;;;;;;;;;;;;;;;1036207;28;4066;-47
2023/04/19 02:13:28;;;;;;;;;;;;;;;;;;1039532;28;1989;-46
2023/04/19 02:13:58;;;;;;;;;;;;;;;;;;1037763;28;4247;-51
2023/04/19 02:14:28;;;;;;;;;;;;;;;;;;1038707;28;3135;-45
2023/04/19 02:15:00;;;;;;;;;;;;;;;;;;1038699;28;4070;-51
2023/04/19 02:15:31;;;;;;;;;;;;;;;;;;1039269;28;2204;-46
2023/04/19 02:16:01;;;;;;;;;;;;;;;;;;1038496;28;3876;-46
2023/04/19 02:16:32;;;;;;;;;;;;;;;;;;1038362;28;2885;-48
2023/04/19 02:17:02;;;;;;;;;;;;;;;;;;1038096;28;3900;-48
2023/04/19 02:17:32;;;;;;;;;;;;;;;;;;1035133;28;1640;-45
2023/04/19 02:18:05;;;;;;;;;;;;;;;;;;1034074;28;4104;-48
2023/04/19 02:18:39;;;;;;;;;;;;;;;;;;1034749;28;2539;-45
2023/04/19 02:19:09;;;;;;;;;;;;;;;;;;1034221;28;4103;-46
2023/04/19 02:19:40;;;;;;;;;;;;;;;;;;1039525;28;1746;-48
2023/04/19 02:20:10;;;;;;;;;;;;;;;;;;1038363;28;4036;-49
2023/04/19 02:20:40;;;;;;;;;;;;;;;;;;1034379;28;3241;-47
2023/04/19 02:21:11;;;;;;;;;;;;;;;;;;1033103;28;4060;-47
2023/04/19 02:21:41;;;;;;;;;;;;;;;;;;1034723;28;2817;-50
2023/04/19 02:22:11;;;;;;;;;;;;;;;;;;1033159;28;4001;-46
2023/04/19 02:22:42;;;;;;;;;;;;;;;;;;1038209;28;2936;-49
2023/04/19 02:23:13;;;;;;;;;;;;;;;;;;1036701;28;4054;-48
2023/04/19 02:23:43;;;;;;;;;;;;;;;;;;1039402;28;2599;-51
2023/04/19 02:24:13;;;;;;;;;;;;;;;;;;1038047;28;3858;-49
2023/04/19 02:24:44;;;;;;;;;;;;;;;;;;1038429;28;1688;-49
2023/04/19 02:25:15;;;;;;;;;;;;;;;;;;1036161;28;3817;-47
2023/04/19 02:25:45;;;;;;;;;;;;;;;;;;1038107;28;2932;-46
2023/04/19 02:26:16;;;;;;;;;;;;;;;;;;1038879;28;3986;-47
2023/04/19 02:26:46;;;;;;;;;;;;;;;;;;1038249;28;3007;-50
2023/04/19 02:27:16;;;;;;;;;;;;;;;;;;1037483;28;4019;-48
2023/04/19 02:27:47;;;;;;;;;;;;;;;;;;1036977;28;3190;-51
2023/04/19 02:28:17;;;;;;;;;;;;;;;;;;1038300;28;3751;-49
2023/04/19 02:28:49;;;;;;;;;;;;;;;;;;1038729;28;3107;-48
2023/04/19 02:29:19;;;;;;;;;;;;;;;;;;1035667;28;4127;-48
2023/04/19 02:29:50;;;;;;;;;;;;;;;;;;1035597;28;3077;-48
2023/04/19 02:30:20;;;;;;;;;;;;;;;;;;1036866;28;4012;-47
2023/04/19 02:30:50;;;;;;;;;;;;;;;;;;1036831;28;2862;-46
2023/04/19 02:31:21;;;;;;;;;;;;;;;;;;1036572;28;4129;-50
2023/04/19 02:31:51;;;;;;;;;;;;;;;;;;1037244;28;2878;-47
2023/04/19 02:32:22;;;;;;;;;;;;;;;;;;1038259;28;4001;-49
2023/04/19 02:32:53;;;;;;;;;;;;;;;;;;1038658;28;2787;-46
2023/04/19 02:33:24;;;;;;;;;;;;;;;;;;1036009;28;4239;-49
2023/04/19 02:33:55;;;;;;;;;;;;;;;;;;1038458;28;1804;-48
2023/04/19 02:34:26;;;;;;;;;;;;;;;;;;1038264;28;4016;-47
2023/04/19 02:34:56;;;;;;;;;;;;;;;;;;1037848;28;1654;-49
2023/04/19 02:35:27;;;;;;;;;;;;;;;;;;1037158;28;3935;-46
2023/04/19 02:35:57;;;;;;;;;;;;;;;;;;1039212;28;2037;-46
2023/04/19 02:36:27;;;;;;;;;;;;;;;;;;1036541;28;3825;-45
2023/04/19 02:36:58;;;;;;;;;;;;;;;;;;1038801;28;3806;-46
2023/04/19 02:37:28;;;;;;;;;;;;;;;;;;1036821;28;2979;-49
2023/04/19 02:37:59;;;;;;;;;;;;;;;;;;1038933;28;3950;-47
2023/04/19 02:38:29;;;;;;;;;;;;;;;;;;1038460;28;2089;-47
2023/04/19 02:39:00;;;;;;;;;;;;;;;;;;1037788;28;4048;-47
2023/04/19 02:39:30;;;;;;;;;;;;;;;;;;1038592;28;1844;-47
2023/04/19 02:40:00;;;;;;;;;;;;;;;;;;1036986;28;3916;-46
2023/04/19 02:40:31;;;;;;;;;;;;;;;;;;1037392;28;2826;-47
2023/04/19 02:41:03;;;;;;;;;;;;;;;;;;1037340;28;4093;-47
2023/04/19 02:41:33;;;;;;;;;;;;;;;;;;1038749;28;3103;-48
2023/04/19 02:42:04;;;;;;;;;;;;;;;;;;1036284;28;4080;-48
2023/04/19 02:42:34;;;;;;;;;;;;;;;;;;1036917;28;2956;-47
2023/04/19 02:43:05;;;;;;;;;;;;;;;;;;1037121;28;4162;-49
2023/04/19 02:43:35;;;;;;;;;;;;;;;;;;1038407;28;2893;-46
2023/04/19 02:44:05;;;;;;;;;;;;;;;;;;1038117;28;4072;-46
2023/04/19 02:44:35;;;;;;;;;;;;;;;;;;1039325;28;1675;-48
2023/04/19 02:45:06;;;;;;;;;;;;;;;;;;1037062;28;4044;-51
2023/04/19 02:45:36;;;;;;;;;;;;;;;;;;1037475;28;2862;-47
2023/04/19 02:46:07;;;;;;;;;;;;;;;;;;1038756;28;3894;-47
2023/04/19 02:46:37;;;;;;;;;;;;;;;;;;1038983;28;2172;-48
2023/04/19 02:47:07;;;;;;;;;;;;;;;;;;1037096;28;3898;-46
2023/04/19 02:47:38;;;;;;;;;;;;;;;;;;1039001;28;1603;-47
2023/04/19 02:48:08;;;;;;;;;;;;;;;;;;1038255;28;4065;-47
2023/04/19 02:48:38;;;;;;;;;;;;;;;;;;1039349;28;1694;-46
2023/04/19 02:49:08;;;;;;;;;;;;;;;;;;1040172;28;3886;-48
2023/04/19 02:49:40;;;;;;;;;;;;;;;;;;1039305;28;1975;-49
2023/04/19 02:50:10;;;;;;;;;;;;;;;;;;1038523;28;4199;-52
2023/04/19 02:50:41;;;;;;;;;;;;;;;;;;1039448;28;2076;-48
2023/04/19 02:51:15;;;;;;;;;;;;;;;;;;1037721;28;4023;-48
2023/04/19 02:51:45;;;;;;;;;;;;;;;;;;1039015;28;1761;-45
2023/04/19 02:52:16;;;;;;;;;;;;;;;;;;1037153;28;3875;-47
2023/04/19 02:52:46;;;;;;;;;;;;;;;;;;1038693;28;1998;-47
2023/04/19 02:53:16;;;;;;;;;;;;;;;;;;1037596;28;3869;-45
2023/04/19 02:53:47;;;;;;;;;;;;;;;;;;1037215;28;2964;-50
2023/04/19 02:54:17;;;;;;;;;;;;;;;;;;1038921;28;4091;-49
2023/04/19 02:54:47;;;;;;;;;;;;;;;;;;1038479;28;2007;-46
2023/04/19 02:55:17;;;;;;;;;;;;;;;;;;1036706;28;3952;-49
2023/04/19 02:55:48;;;;;;;;;;;;;;;;;;1038348;28;1960;-48
2023/04/19 02:56:18;;;;;;;;;;;;;;;;;;1038984;28;3916;-48
2023/04/19 02:56:48;;;;;;;;;;;;;;;;;;1038823;28;1816;-49
2023/04/19 02:57:19;;;;;;;;;;;;;;;;;;1038202;28;4080;-46
2023/04/19 02:57:49;;;;;;;;;;;;;;;;;;1037468;28;2902;-51
2023/04/19 02:58:19;;;;;;;;;;;;;;;;;;1038281;28;4044;-49
2023/04/19 02:58:51;;;;;;;;;;;;;;;;;;1038499;28;2953;-45
2023/04/19 02:59:22;;;;;;;;;;;;;;;;;;1038695;28;3990;-49
2023/04/19 02:59:52;;;;;;;;;;;;;;;;;;1039136;28;2237;-47
2023/04/19 03:00:22;;;;;;;;;;;;;;;;;;1037173;28;4113;-47
2023/04/19 03:00:53;;;;;;;;;;;;;;;;;;1037007;28;2900;-47
2023/04/19 03:01:23;;;;;;;;;;;;;;;;;;1038726;28;3789;-46
2023/04/19 03:01:53;;;;;;;;;;;;;;;;;;1038873;28;1804;-47
2023/04/19 03:02:24;;;;;;;;;;;;;;;;;;1037661;28;4036;-46
2023/04/19 03:02:55;;;;;;;;;;;;;;;;;;1039983;28;1914;-50
2023/04/19 03:03:25;;;;;;;;;;;;;;;;;;1035710;28;4039;-50
2023/04/19 03:03:55;;;;;;;;;;;;;;;;;;1034269;28;2954;-46
2023/04/19 03:04:27;;;;;;;;;;;;;;;;;;1032998;28;3779;-49
2023/04/19 03:04:58;;;;;;;;;;;;;;;;;;1034530;28;3889;-46
2023/04/19 03:05:28;;;;;;;;;;;;;;;;;;1033695;28;3174;-48
2023/04/19 03:05:58;;;;;;;;;;;;;;;;;;1038872;28;3865;-47
2023/04/19 03:06:28;;;;;;;;;;;;;;;;;;1038811;28;1863;-50
2023/04/19 03:06:59;;;;;;;;;;;;;;;;;;1038774;28;4197;-49
2023/04/19 03:07:29;;;;;;;;;;;;;;;;;;1039069;28;2268;-46
2023/04/19 03:07:59;;;;;;;;;;;;;;;;;;1037700;28;4043;-49
2023/04/19 03:08:29;;;;;;;;;;;;;;;;;;1034065;28;1887;-50
2023/04/19 03:09:00;;;;;;;;;;;;;;;;;;1033980;28;4790;-47
2023/04/19 03:09:30;;;;;;;;;;;;;;;;;;1034203;28;2001;-49
2023/04/19 03:10:00;;;;;;;;;;;;;;;;;;1033923;28;4115;-47
2023/04/19 03:10:31;;;;;;;;;;;;;;;;;;1038282;28;2985;-47
2023/04/19 03:11:01;;;;;;;;;;;;;;;;;;1037702;28;4057;-48
2023/04/19 03:11:31;;;;;;;;;;;;;;;;;;1039138;28;2913;-46
2023/04/19 03:12:02;;;;;;;;;;;;;;;;;;1037819;28;4122;-48
2023/04/19 03:12:32;;;;;;;;;;;;;;;;;;1038121;28;1969;-45
2023/04/19 03:13:02;;;;;;;;;;;;;;;;;;1035229;28;4138;-47
2023/04/19 03:13:33;;;;;;;;;;;;;;;;;;1037833;28;3001;-46
2023/04/19 03:14:03;;;;;;;;;;;;;;;;;;1037640;28;3810;-50
2023/04/19 03:14:33;;;;;;;;;;;;;;;;;;1037170;28;2931;-46
2023/04/19 03:15:04;;;;;;;;;;;;;;;;;;1037629;28;3901;-50
2023/04/19 03:15:34;;;;;;;;;;;;;;;;;;1038714;28;2100;-47
2023/04/19 03:16:05;;;;;;;;;;;;;;;;;;1037676;28;3958;-50
2023/04/19 03:16:36;;;;;;;;;;;;;;;;;;1039048;28;1956;-47
2023/04/19 03:17:07;;;;;;;;;;;;;;;;;;1037278;28;3886;-48
2023/04/19 03:17:37;;;;;;;;;;;;;;;;;;1034117;28;3142;-48
2023/04/19 03:18:07;;;;;;;;;;;;;;;;;;1033765;28;4041;-45
2023/04/19 03:18:38;;;;;;;;;;;;;;;;;;1034134;28;1745;-46
2023/04/19 03:19:08;;;;;;;;;;;;;;;;;;1033468;28;4073;-50
2023/04/19 03:19:38;;;;;;;;;;;;;;;;;;1038499;28;1657;-45
2023/04/19 03:20:10;;;;;;;;;;;;;;;;;;1038411;28;3803;-51
2023/04/19 03:20:40;;;;;;;;;;;;;;;;;;1037450;28;2953;-46
2023/04/19 03:21:11;;;;;;;;;;;;;;;;;;1036692;28;4015;-46
2023/04/19 03:21:41;;;;;;;;;;;;;;;;;;1036221;28;2518;-48
2023/04/19 03:22:11;;;;;;;;;;;;;;;;;;1037268;28;4081;-46
2023/04/19 03:22:41;;;;;;;;;;;;;;;;;;1038588;28;2883;-46
2023/04/19 03:23:12;;;;;;;;;;;;;;;;;;1037147;28;4010;-45
2023/04/19 03:23:42;;;;;;;;;;;;;;;;;;1037931;28;2566;-50
2023/04/19 03:24:12;;;;;;;;;;;;;;;;;;1038052;28;4152;-46
2023/04/19 03:24:43;;;;;;;;;;;;;;;;;;1039088;28;1767;-47
2023/04/19 03:25:13;;;;;;;;;;;;;;;;;;1037164;28;3953;-49
2023/04/19 03:25:43;;;;;;;;;;;;;;;;;;1037871;28;2629;-47
2023/04/19 03:26:14;;;;;;;;;;;;;;;;;;1037377;28;4203;-48
2023/04/19 03:26:44;;;;;;;;;;;;;;;;;;1037664;28;1675;-46
2023/04/19 03:27:15;;;;;;;;;;;;;;;;;;1037339;28;4035;-50
2023/04/19 03:27:46;;;;;;;;;;;;;;;;;;1037897;28;3430;-47
2023/04/19 03:28:17;;;;;;;;;;;;;;;;;;1038550;28;3891;-46
2023/04/19 03:28:47;;;;;;;;;;;;;;;;;;1038651;28;2169;-51
2023/04/19 03:29:17;;;;;;;;;;;;;;;;;;1038059;28;3763;-49
2023/04/19 03:29:47;;;;;;;;;;;;;;;;;;1037396;28;2939;-44
2023/04/19 03:30:18;;;;;;;;;;;;;;;;;;1037705;28;4051;-50
2023/04/19 03:30:48;;;;;;;;;;;;;;;;;;1038248;28;2057;-45
2023/04/19 03:31:18;;;;;;;;;;;;;;;;;;1036734;28;4114;-50
2023/04/19 03:31:49;;;;;;;;;;;;;;;;;;1037309;28;2930;-48
2023/04/19 03:32:19;;;;;;;;;;;;;;;;;;1036800;28;4003;-49